Main page
METAR-TAF:

METAR-TAF

Airports :

Bou Saada Airport

Bou Saâda, Algeria

latitude: 35-20N, longitude: 004-12E, elevation: 461 m

Current weather observation

The report was made 2 hours and 38 minutes ago, at 18:00 UTC
Wind 11 kt from the South
Temperature 22°C
Humidity 57%
Pressure 1018 hPa
Visibility 10 km or more
Few clouds at a height of 3000 ft
Scattered clouds at a height of 10000 ft

METAR: DAAD 091800Z 19011KT 9999 FEW030 SCT100 22/13 Q1018

Time: 21:38 (20:38 UTC)

Forecast

The report was made 3 hours and 38 minutes ago, at 17:00 UTC
Forecast valid from 09 at 18 UTC to 10 at 03 UTC
Wind 12 kt from the Southeast
Visibility 10 km or more
Few clouds at a height of 3000 ft
Scattered clouds at a height of 10000 ft
Probability 30% :
Temporary
from 09 at 18 UTC to 09 at 20 UTC
Few clouds at a height of 3000 ft, Cumulonimbus.

TAF: DAAD 091700Z 0918/1003 14012KT 9999 FEW030 SCT100 PROB30 TEMPO 0918/0920 FEW030CB

Weather observations and forecasts of more than 4000 airports (METAR and TAF reports).

The available stations are represented by yellow and red dots on the map.

Hover mouse over dot to see the name of the station.

Then click to see weather observations and forecasts.

To change the map : click on the green buttons with a black cross to zoom in, on the green button with a dash to zoom out, or on the green arrows for adjacent maps.


METAR-TAF: